Aviation Digital Data Service (ADDS)

Output produced by TAFs form (1357 UTC 30 August 2015)
found at http://aviationweather.gov/adds/tafs/
 
KTCS 301138Z 3012/3112 30006KT P6SM SCT250 
     FM302100 18010KT P6SM VCTS SCT070CB SCT250 
     FM310300 29007KT P6SM SCT250